Time;durP1;ratioP1;P1;durP2;ratioP2;P2;SDS_P1;SDS_P2;PMS_P1;PMS_P2;Temp;Humidity;BMP_temperature;BMP_pressure;BME280_temperature;BME280_humidity;BME280_pressure;Samples;Min_cycle;Max_cycle;Signal;HPM_P1;HPM_P2
2023/10/06 00:01:40;;;;;;;9.63;3.40;;;;;;;-145.69;65.53;52230.50;5136242;27;20551;-80
2023/10/06 00:04:08;;;;;;;12.00;3.50;;;;;;;-145.69;65.73;52198.81;5136205;27;20224;-80
2023/10/06 00:06:37;;;;;;;12.67;3.70;;;;;;;-145.69;66.23;52214.66;5136133;27;20196;-81
2023/10/06 00:09:06;;;;;;;10.37;4.10;;;;;;;-145.69;65.81;52214.66;5057482;27;20417;-80
2023/10/06 00:11:33;;;;;;;8.90;4.17;;;;;;;-145.69;65.95;52250.31;5031723;28;20228;-81
2023/10/06 00:14:07;;;;;;;11.83;3.80;;;;;;;-145.69;65.44;52236.44;5031688;28;20257;-81
2023/10/06 00:16:38;;;;;;;9.63;3.10;;;;;;;-145.69;65.24;52236.44;5031629;28;20196;-80
2023/10/06 00:19:26;;;;;;;10.30;3.47;;;;;;;-145.69;65.70;52224.56;5031920;28;20197;-81
2023/10/06 00:22:09;;;;;;;7.87;3.30;;;;;;;-145.69;65.48;52228.53;5031603;28;20621;-81
2023/10/06 00:24:37;;;;;;;13.10;3.50;;;;;;;-145.69;65.77;52246.34;5031487;28;20206;-81
2023/10/06 00:27:10;;;;;;;20.27;3.97;;;;;;;-145.69;65.72;52230.50;5031538;28;20204;-81
2023/10/06 00:29:37;;;;;;;13.67;3.30;;;;;;;-145.69;66.09;52246.34;5031550;28;20232;-81
2023/10/06 00:32:21;;;;;;;10.77;3.87;;;;;;;-145.69;66.52;52246.34;5031826;28;20211;-80
2023/10/06 00:34:48;;;;;;;13.07;3.97;;;;;;;-145.69;66.99;52248.34;5031253;28;20239;-80
2023/10/06 00:37:16;;;;;;;9.83;4.10;;;;;;;-145.69;66.73;52214.66;5031184;28;20208;-81
2023/10/06 00:39:43;;;;;;;11.83;3.73;;;;;;;-145.69;66.99;52234.47;5030932;28;20196;-81
2023/10/06 00:42:14;;;;;;;17.10;4.60;;;;;;;-145.69;66.73;52246.34;5031530;28;20204;-81
2023/10/06 00:44:45;;;;;;;9.00;3.63;;;;;;;-145.69;66.53;52254.28;5031197;28;20745;-80
2023/10/06 00:47:13;;;;;;;18.20;3.63;;;;;;;-145.69;67.03;52242.38;5031360;28;20570;-80
2023/10/06 00:49:40;;;;;;;15.03;4.57;;;;;;;-145.69;67.10;52242.38;5031133;28;20250;-81
2023/10/06 00:52:10;;;;;;;10.60;4.00;;;;;;;-145.69;66.06;52260.22;5031180;28;20200;-80
2023/10/06 00:54:42;;;;;;;9.67;4.03;;;;;;;-145.69;66.08;52212.69;5030929;28;20262;-80
2023/10/06 00:57:10;;;;;;;7.83;3.33;;;;;;;-145.69;66.41;52234.47;5030564;28;20232;-81
2023/10/06 00:59:41;;;;;;;8.70;3.50;;;;;;;-145.69;65.89;52230.50;5031168;28;20475;-80
2023/10/06 01:02:09;;;;;;;13.67;3.20;;;;;;;-145.69;65.98;52218.63;5031043;28;20219;-80
2023/10/06 01:04:42;;;;;;;11.23;3.30;;;;;;;-145.69;66.26;52238.44;5030745;28;20205;-80
2023/10/06 01:07:10;;;;;;;9.50;3.90;;;;;;;-145.69;65.68;52238.44;5031112;28;20336;-80
2023/10/06 01:09:39;;;;;;;15.20;4.30;;;;;;;-145.69;66.58;52238.44;5029380;28;20611;-80
2023/10/06 01:12:17;;;;;;;8.93;4.43;;;;;;;-145.69;66.11;52258.22;5011247;28;20613;-81
2023/10/06 01:14:44;;;;;;;16.77;4.80;;;;;;;-145.69;66.70;52266.16;5019492;28;20248;-81
2023/10/06 01:17:16;;;;;;;13.53;4.60;;;;;;;-145.69;67.00;52254.28;5030660;28;20196;-80
2023/10/06 01:19:49;;;;;;;15.37;4.50;;;;;;;-145.69;66.88;52262.19;5030660;28;20295;-80
2023/10/06 01:22:24;;;;;;;13.10;3.93;;;;;;;-145.69;67.10;52230.50;5030664;28;20608;-81
2023/10/06 01:24:52;;;;;;;15.33;5.47;;;;;;;-145.69;67.50;52230.50;5030660;28;20289;-80
2023/10/06 01:27:19;;;;;;;19.43;6.10;;;;;;;-145.69;67.51;52226.53;5030238;28;20192;-80
2023/10/06 01:29:51;;;;;;;20.80;6.50;;;;;;;-145.69;67.70;52246.34;5030545;28;20228;-81
2023/10/06 01:32:20;;;;;;;26.37;5.90;;;;;;;-145.69;67.08;52242.38;5030924;28;20288;-80
2023/10/06 01:34:50;;;;;;;16.67;5.83;;;;;;;-145.69;67.06;52268.13;5030260;28;20272;-80
2023/10/06 01:37:18;;;;;;;11.90;5.57;;;;;;;-145.69;66.30;52254.28;5030562;28;20544;-80
2023/10/06 01:39:48;;;;;;;15.50;6.30;;;;;;;-145.69;66.73;52246.34;5030376;28;20228;-81
2023/10/06 01:42:18;;;;;;;13.23;5.33;;;;;;;-145.69;66.85;52234.47;5030400;28;20196;-80
2023/10/06 01:44:44;;;;;;;15.77;5.73;;;;;;;-145.69;66.81;52214.66;5030422;28;20208;-80
2023/10/06 01:47:12;;;;;;;18.47;6.63;;;;;;;-145.69;66.71;52254.28;5067026;27;20622;-80
2023/10/06 01:49:39;;;;;;;17.00;6.57;;;;;;;-145.69;67.72;52226.53;5134057;27;20228;-80
2023/10/06 01:52:06;;;;;;;17.20;6.00;;;;;;;-145.69;66.56;52246.34;5134070;27;20197;-80
2023/10/06 01:54:35;;;;;;;18.70;6.03;;;;;;;-145.69;66.74;52214.66;5133970;27;20201;-80
2023/10/06 01:57:06;;;;;;;17.20;6.63;;;;;;;-145.69;67.58;52258.22;5133333;27;20207;-80
2023/10/06 01:59:32;;;;;;;17.90;5.67;;;;;;;-145.69;67.01;52224.56;5032385;27;20205;-80
2023/10/06 02:02:01;;;;;;;16.87;5.70;;;;;;;-145.69;66.86;52254.28;5029837;28;20200;-80
2023/10/06 02:04:38;;;;;;;20.63;7.13;;;;;;;-145.69;67.94;52274.06;5030052;28;20648;-80
2023/10/06 02:07:10;;;;;;;18.50;7.30;;;;;;;-145.69;67.47;52250.31;5030587;28;20204;-80
2023/10/06 02:09:40;;;;;;;20.67;6.83;;;;;;;-145.69;67.09;52272.09;5028569;28;20228;-80
2023/10/06 02:12:07;;;;;;;20.77;6.37;;;;;;;-145.69;67.15;52238.44;5065769;27;20610;-80
2023/10/06 02:14:36;;;;;;;20.10;6.20;;;;;;;-145.69;67.11;52264.16;5068810;27;20229;-80
2023/10/06 02:17:06;;;;;;;19.93;6.90;;;;;;;-145.69;67.69;52254.28;5029994;28;20204;-80
2023/10/06 02:19:34;;;;;;;23.67;8.00;;;;;;;-145.69;68.53;52254.28;5029766;28;20597;-81
2023/10/06 02:22:00;;;;;;;18.13;7.50;;;;;;;-145.69;67.89;52234.47;5029917;28;20647;-80
2023/10/06 02:24:27;;;;;;;20.50;7.00;;;;;;;-145.69;67.96;52258.22;5029958;28;20200;-79
2023/10/06 02:27:00;;;;;;;15.80;6.30;;;;;;;-145.69;68.07;52236.44;5029459;28;20227;-80
2023/10/06 02:29:27;;;;;;;19.40;6.83;;;;;;;-145.69;68.45;52230.50;5029178;28;20228;-80
2023/10/06 02:32:00;;;;;;;31.13;8.47;;;;;;;-145.69;68.66;52244.38;5029118;28;20203;-81
2023/10/06 02:34:29;;;;;;;19.10;7.13;;;;;;;-145.69;68.32;52248.34;5029875;28;20215;-80
2023/10/06 02:36:55;;;;;;;18.80;7.23;;;;;;;-145.69;69.04;52230.50;4990623;28;20205;-80
2023/10/06 02:39:26;;;;;;;23.47;8.13;;;;;;;-145.69;69.23;52262.19;4990537;28;20212;-80
2023/10/06 02:41:57;;;;;;;18.83;7.57;;;;;;;-145.69;68.74;52264.16;4987818;28;20202;-80
2023/10/06 02:44:30;;;;;;;23.33;7.70;;;;;;;-145.69;68.89;52248.34;4980893;28;20680;-79
2023/10/06 02:46:59;;;;;;;23.60;7.93;;;;;;;-145.69;68.76;52246.34;4971101;28;20210;-80
2023/10/06 02:49:31;;;;;;;23.97;7.70;;;;;;;-145.69;68.76;52274.06;4970975;28;20256;-80
2023/10/06 02:52:00;;;;;;;23.33;7.63;;;;;;;-145.69;68.29;52246.34;4971024;28;20293;-80
2023/10/06 02:54:28;;;;;;;26.50;7.47;;;;;;;-145.69;67.45;52224.56;4970782;28;20264;-80
2023/10/06 02:56:56;;;;;;;20.47;7.33;;;;;;;-145.69;68.52;52252.28;4970855;28;20566;-80
2023/10/06 02:59:25;;;;;;;26.30;7.33;;;;;;;-145.69;68.53;52266.16;4986790;28;20202;-80
2023/10/06 03:01:55;;;;;;;23.53;8.33;;;;;;;-145.69;68.80;52256.25;4990467;28;20245;-80
2023/10/06 03:04:25;;;;;;;22.83;7.87;;;;;;;-145.69;69.04;52258.22;4990017;28;20237;-80
2023/10/06 03:06:55;;;;;;;19.93;8.10;;;;;;;-145.69;68.87;52230.50;4990073;28;20205;-80
2023/10/06 03:09:27;;;;;;;30.30;9.10;;;;;;;-145.69;69.17;52230.50;4988765;28;20704;-80
2023/10/06 03:12:14;;;;;;;21.17;8.33;;;;;;;-145.69;68.46;52228.53;4990200;28;20202;-80
2023/10/06 03:14:43;;;;;;;29.00;7.90;;;;;;;-145.69;68.35;52238.44;4989790;28;20281;-80
2023/10/06 03:17:12;;;;;;;26.07;7.73;;;;;;;-145.69;68.45;52234.47;4988603;28;20206;-80
2023/10/06 03:19:44;;;;;;;27.63;8.20;;;;;;;-145.69;68.96;52214.66;4989901;28;20212;-80
2023/10/06 03:22:13;;;;;;;21.53;7.30;;;;;;;-145.69;68.58;52222.59;4992797;28;20208;-80
2023/10/06 03:24:45;;;;;;;26.03;7.10;;;;;;;-145.69;68.29;52254.28;4993196;28;20254;-79
2023/10/06 03:27:14;;;;;;;16.80;6.67;;;;;;;-145.69;68.08;52248.34;4993022;28;20205;-80
2023/10/06 03:29:48;;;;;;;17.13;6.83;;;;;;;-145.69;69.18;52254.28;4992315;28;20270;-80
2023/10/06 03:32:27;;;;;;;25.37;7.50;;;;;;;-145.69;69.29;52232.50;4993093;28;20215;-80
2023/10/06 03:34:57;;;;;;;19.93;7.27;;;;;;;-145.69;69.05;52238.44;4998407;28;20743;-80
2023/10/06 03:37:51;;;;;;;22.30;7.27;;;;;;;-145.69;69.01;52234.47;5032368;28;20593;-80
2023/10/06 03:40:23;;;;;;;26.10;7.37;;;;;;;-145.69;69.08;52278.03;5123573;27;20189;-80
2023/10/06 03:42:53;;;;;;;23.37;8.03;;;;;;;-145.69;68.87;52252.28;5136619;27;20235;-80
2023/10/06 03:45:26;;;;;;;21.17;6.73;;;;;;;-145.69;69.31;52240.41;5046102;27;20250;-80
2023/10/06 03:47:54;;;;;;;23.53;7.00;;;;;;;-145.69;68.77;52240.41;5032135;28;20571;-80
2023/10/06 03:50:24;;;;;;;21.90;7.10;;;;;;;-145.69;69.83;52228.53;5032097;28;20235;-79
2023/10/06 03:52:51;;;;;;;20.80;7.17;;;;;;;-145.69;70.05;52250.31;5031875;28;20246;-80
2023/10/06 03:55:17;;;;;;;19.20;6.57;;;;;;;-145.69;69.47;52234.47;5031898;28;20656;-80
2023/10/06 03:57:45;;;;;;;27.23;6.57;;;;;;;-145.69;68.94;52246.34;5031327;28;20207;-80
2023/10/06 04:00:19;;;;;;;19.07;6.07;;;;;;;-145.69;68.58;52220.59;5012316;28;20295;-80
2023/10/06 04:02:48;;;;;;;26.43;7.33;;;;;;;-145.69;69.35;52252.28;5015630;28;20559;-80
2023/10/06 04:05:16;;;;;;;14.20;6.20;;;;;;;-145.69;68.37;52254.28;5030614;28;20204;-80
2023/10/06 04:07:45;;;;;;;21.40;6.33;;;;;;;-145.69;68.12;52268.13;5037968;27;20667;-80
2023/10/06 04:10:14;;;;;;;28.80;6.90;;;;;;;-145.69;68.57;52230.50;5134933;27;20227;-80
2023/10/06 04:12:43;;;;;;;22.60;7.33;;;;;;;-145.69;69.14;52236.44;5135938;27;20719;-80
2023/10/06 04:15:14;;;;;;;14.50;6.17;;;;;;;-145.69;69.01;52246.34;5071375;27;20211;-80
2023/10/06 04:17:43;;;;;;;15.03;6.23;;;;;;;-145.69;68.59;52250.31;5031793;28;20204;-80
2023/10/06 04:20:14;;;;;;;13.87;5.97;;;;;;;-145.69;68.89;52254.28;5031586;28;20566;-80
2023/10/06 04:22:43;;;;;;;18.17;6.20;;;;;;;-145.69;68.51;52222.59;5031802;28;20204;-80
2023/10/06 04:25:16;;;;;;;16.80;5.23;;;;;;;-145.69;67.77;52232.50;5031529;28;20196;-81
2023/10/06 04:27:42;;;;;;;23.20;6.50;;;;;;;-145.69;68.39;52206.75;5031505;28;20655;-80
2023/10/06 04:30:13;;;;;;;19.93;6.47;;;;;;;-145.69;69.54;52222.59;5031084;28;20311;-80
2023/10/06 04:32:40;;;;;;;20.30;7.03;;;;;;;-145.69;68.66;52226.53;5030433;28;20211;-81
2023/10/06 04:35:19;;;;;;;21.03;5.63;;;;;;;-145.69;68.59;52278.03;5031306;28;20236;-80
2023/10/06 04:37:50;;;;;;;17.87;5.97;;;;;;;-145.69;69.06;52258.22;5031495;28;20257;-80
2023/10/06 04:40:21;;;;;;;17.70;5.43;;;;;;;-145.69;67.58;52260.22;5030833;28;20673;-80
2023/10/06 04:42:48;;;;;;;15.33;5.97;;;;;;;-145.69;67.25;52222.59;5031124;28;20204;-80
2023/10/06 04:45:16;;;;;;;18.27;5.13;;;;;;;-145.69;67.63;52242.38;5031020;28;20200;-80
2023/10/06 04:47:45;;;;;;;19.57;6.13;;;;;;;-145.69;67.85;52268.13;5030778;28;20281;-80
2023/10/06 04:50:15;;;;;;;14.13;5.33;;;;;;;-145.69;67.15;52258.22;5030979;28;20598;-80
2023/10/06 04:52:44;;;;;;;20.67;5.70;;;;;;;-145.69;67.44;52254.28;5029589;28;20260;-80
2023/10/06 04:55:13;;;;;;;16.13;5.20;;;;;;;-145.69;67.65;52270.13;5031199;28;20204;-79
2023/10/06 04:57:41;;;;;;;15.53;4.73;;;;;;;-145.69;68.18;52313.69;5031088;28;20200;-80
2023/10/06 05:00:15;;;;;;;14.07;4.93;;;;;;;-145.69;67.28;52232.50;5029843;28;20242;-80
2023/10/06 05:02:43;;;;;;;13.20;4.93;;;;;;;-145.69;67.64;52236.44;5031078;28;20300;-80
2023/10/06 05:05:11;;;;;;;16.77;4.30;;;;;;;-145.69;67.34;52260.22;5030859;28;20200;-80
2023/10/06 05:07:42;;;;;;;13.40;4.37;;;;;;;-145.69;67.30;52226.53;5031040;28;20200;-80
2023/10/06 05:10:12;;;;;;;11.10;4.93;;;;;;;-145.69;67.20;52224.56;5030858;28;20259;-80
2023/10/06 05:12:42;;;;;;;15.77;4.63;;;;;;;-145.69;67.60;52246.34;5030710;28;20209;-80
2023/10/06 05:15:14;;;;;;;15.33;5.00;;;;;;;-145.69;67.55;52250.31;5030965;28;20192;-80
2023/10/06 05:17:41;;;;;;;19.97;6.00;;;;;;;-145.69;67.55;52256.25;5030543;28;20188;-79
2023/10/06 05:20:19;;;;;;;16.17;5.07;;;;;;;-145.69;67.80;52282.00;5030791;28;20204;-80
2023/10/06 05:22:50;;;;;;;11.93;5.43;;;;;;;-145.69;68.02;52274.06;5030281;28;20249;-80
2023/10/06 05:25:19;;;;;;;19.10;5.50;;;;;;;-145.69;68.10;52256.25;5030807;28;20196;-81
2023/10/06 05:27:47;;;;;;;16.90;5.80;;;;;;;-145.69;68.52;52238.44;5029451;28;20211;-80
2023/10/06 05:30:17;;;;;;;27.13;7.70;;;;;;;-145.69;68.29;52254.28;5030707;28;20322;-80
2023/10/06 05:32:44;;;;;;;17.93;5.50;;;;;;;-145.69;67.48;52238.44;5030608;28;20206;-80
2023/10/06 05:35:13;;;;;;;15.97;5.93;;;;;;;-145.69;67.75;52254.28;5030428;28;20270;-80
2023/10/06 05:37:42;;;;;;;15.27;5.27;;;;;;;-145.69;67.73;52252.28;5030423;28;20208;-80
2023/10/06 05:40:15;;;;;;;14.77;5.60;;;;;;;-145.69;67.74;52242.38;5030914;28;20205;-80
2023/10/06 05:42:42;;;;;;;15.03;5.93;;;;;;;-145.69;67.49;52260.22;5030873;28;20196;-80
2023/10/06 05:45:15;;;;;;;18.63;5.93;;;;;;;-145.69;67.90;52238.44;5028816;28;20767;-80
2023/10/06 05:47:43;;;;;;;14.17;4.77;;;;;;;-145.69;67.86;52258.22;5044534;27;20203;-80
2023/10/06 05:50:11;;;;;;;21.60;6.87;;;;;;;-145.69;67.84;52268.13;5030094;28;20763;-80
2023/10/06 05:52:39;;;;;;;13.43;5.40;;;;;;;-145.69;68.05;52258.22;5030123;28;20253;-79
2023/10/06 05:55:12;;;;;;;11.87;4.93;;;;;;;-145.69;67.27;52256.25;5030497;28;20210;-80
2023/10/06 05:57:48;;;;;;;17.10;6.10;;;;;;;-145.69;68.02;52250.31;5030371;28;20192;-80
2023/10/06 06:00:19;;;;;;;17.27;6.43;;;;;;;-145.69;68.14;52262.19;5030307;28;20210;-80
2023/10/06 06:02:47;;;;;;;19.63;6.13;;;;;;;-145.69;68.16;52242.38;5030065;28;20655;-80
2023/10/06 06:05:16;;;;;;;24.07;7.73;;;;;;;-145.69;69.03;52230.50;5030170;28;20196;-80
2023/10/06 06:07:43;;;;;;;16.40;6.83;;;;;;;-145.69;68.54;52254.28;5030305;28;20303;-80
2023/10/06 06:10:15;;;;;;;27.27;9.00;;;;;;;-145.69;69.10;52238.44;5084819;27;20461;-80
2023/10/06 06:12:42;;;;;;;24.23;8.17;;;;;;;-145.69;69.04;52240.41;5126283;27;20193;-80
2023/10/06 06:15:12;;;;;;;24.57;8.30;;;;;;;-145.69;68.72;52256.25;5134183;27;20204;-80
2023/10/06 06:17:40;;;;;;;23.93;8.73;;;;;;;-145.69;68.38;52242.38;5109433;27;20192;-80
2023/10/06 06:20:14;;;;;;;23.23;7.73;;;;;;;-145.69;68.45;52262.19;5030238;28;20204;-80
2023/10/06 06:22:43;;;;;;;18.60;7.80;;;;;;;-145.69;68.78;52254.28;5029903;28;20236;-80
2023/10/06 06:25:11;;;;;;;22.17;8.37;;;;;;;-145.69;68.50;52256.25;5030284;28;20321;-80
2023/10/06 06:27:37;;;;;;;25.30;8.63;;;;;;;-145.69;69.40;52240.41;5029165;28;20193;-80
2023/10/06 06:30:05;;;;;;;22.97;9.03;;;;;;;-145.69;69.24;52208.72;5029261;28;20702;-80
2023/10/06 06:32:32;;;;;;;26.93;8.50;;;;;;;-145.69;68.66;52278.03;5029918;28;20204;-80
2023/10/06 06:34:58;;;;;;;26.67;9.40;;;;;;;-145.69;69.38;52230.50;5029681;28;20769;-80
2023/10/06 06:37:25;;;;;;;23.13;8.30;;;;;;;-145.69;68.69;52238.44;5029763;28;20239;-80
2023/10/06 06:39:51;;;;;;;23.30;8.70;;;;;;;-145.69;69.21;52258.22;5029539;28;20200;-80
2023/10/06 06:42:19;;;;;;;30.87;9.70;;;;;;;-145.69;68.92;52234.47;5029157;28;20199;-79
2023/10/06 06:44:51;;;;;;;21.80;8.80;;;;;;;-145.69;69.02;52226.53;5029224;28;20188;-79
2023/10/06 06:47:18;;;;;;;20.63;9.13;;;;;;;-145.69;68.92;52212.69;5029379;28;20287;-79
2023/10/06 06:49:48;;;;;;;21.23;8.37;;;;;;;-145.69;69.19;52246.34;5029119;28;20224;-79
2023/10/06 06:52:15;;;;;;;21.80;9.00;;;;;;;-145.69;68.59;52218.63;5029590;28;20196;-79
2023/10/06 06:54:46;;;;;;;23.07;8.10;;;;;;;-145.69;68.62;52246.34;5029814;28;20212;-79
2023/10/06 06:57:15;;;;;;;29.77;11.70;;;;;;;-145.69;69.98;52218.63;5032215;28;20438;-79
2023/10/06 06:59:44;;;;;;;21.80;8.93;;;;;;;-145.69;69.35;52216.66;5032544;28;20207;-79
2023/10/06 07:02:11;;;;;;;21.83;8.30;;;;;;;-145.69;68.97;52210.72;5031653;28;20196;-79
2023/10/06 07:04:40;;;;;;;21.77;7.30;;;;;;;-145.69;69.07;52252.28;5030758;28;20204;-79
2023/10/06 07:07:09;;;;;;;18.47;7.97;;;;;;;-145.69;68.97;52212.69;5030873;28;20231;-80
2023/10/06 07:09:35;;;;;;;26.80;7.73;;;;;;;-145.69;68.94;52204.75;5031680;28;20206;-81
2023/10/06 07:12:03;;;;;;;20.67;7.87;;;;;;;-145.69;68.82;52218.63;5031594;28;20200;-79
2023/10/06 07:14:32;;;;;;;23.37;7.73;;;;;;;-145.69;68.32;52218.63;5030917;28;20686;-79
2023/10/06 07:17:00;;;;;;;16.87;6.93;;;;;;;-145.69;68.55;52258.22;5031248;28;20283;-80
2023/10/06 07:19:27;;;;;;;23.00;7.50;;;;;;;-145.69;68.89;52200.81;5032710;28;20207;-79
2023/10/06 07:21:53;;;;;;;27.20;7.37;;;;;;;-145.69;68.67;52198.81;5032700;28;20196;-79
2023/10/06 07:24:20;;;;;;;22.03;7.47;;;;;;;-145.69;68.55;52210.72;5032020;28;20228;-80
2023/10/06 07:26:46;;;;;;;19.10;7.10;;;;;;;-145.69;68.87;52254.28;5032549;28;20254;-79
2023/10/06 07:29:14;;;;;;;19.37;7.33;;;;;;;-145.69;69.30;52179.03;5032891;28;20675;-79
2023/10/06 07:31:42;;;;;;;19.53;7.20;;;;;;;-145.69;68.79;52206.75;5032610;28;20743;-79
2023/10/06 07:34:11;;;;;;;21.07;7.00;;;;;;;-145.69;68.76;52222.59;5032258;28;20207;-79
2023/10/06 07:36:43;;;;;;;15.73;6.53;;;;;;;-145.69;69.14;52186.94;5032086;28;20228;-79
2023/10/06 07:39:20;;;;;;;16.50;6.67;;;;;;;-145.69;69.43;52208.72;5032565;28;20200;-79
2023/10/06 07:41:47;;;;;;;14.57;6.40;;;;;;;-145.69;69.30;52232.50;5033115;28;20212;-79
2023/10/06 07:44:14;;;;;;;16.60;6.37;;;;;;;-145.69;69.45;52214.66;5033564;28;20208;-80
2023/10/06 07:46:41;;;;;;;17.63;5.63;;;;;;;-145.69;69.34;52228.53;5031479;28;20208;-79
2023/10/06 07:49:11;;;;;;;12.83;5.50;;;;;;;-145.69;69.51;52210.72;5032057;28;20279;-79
2023/10/06 07:51:39;;;;;;;14.17;6.17;;;;;;;-145.69;69.96;52177.03;5032022;28;20319;-79
2023/10/06 07:54:09;;;;;;;14.63;5.50;;;;;;;-145.69;70.05;52206.75;5046914;27;20279;-79
2023/10/06 07:56:35;;;;;;;18.03;6.17;;;;;;;-145.69;69.91;52222.59;5031456;28;20196;-80
2023/10/06 07:59:06;;;;;;;17.30;5.83;;;;;;;-145.69;70.52;52202.78;5031643;28;20211;-79
2023/10/06 08:01:34;;;;;;;20.63;7.03;;;;;;;-145.69;70.60;52208.72;5084299;27;20196;-79
2023/10/06 08:04:01;;;;;;;16.53;7.07;;;;;;;-145.69;70.21;52190.91;5031555;28;20228;-79
2023/10/06 08:06:29;;;;;;;16.10;6.68;;;;;;;-145.69;70.28;52165.16;5032198;28;20623;-79
2023/10/06 08:08:57;;;;;;;20.90;6.73;;;;;;;-145.69;70.69;52226.53;5031517;28;20201;-79
2023/10/06 08:11:25;;;;;;;21.53;6.97;;;;;;;-145.69;70.03;52198.81;5031647;28;20220;-79
2023/10/06 08:13:54;;;;;;;15.10;6.93;;;;;;;-145.69;69.50;52175.06;5030841;28;20262;-80
2023/10/06 08:16:21;;;;;;;18.77;6.80;;;;;;;-145.69;70.51;52204.75;5029734;28;20200;-79
2023/10/06 08:18:47;;;;;;;15.80;7.25;;;;;;;-145.69;71.47;52206.75;5035346;27;20495;-80
2023/10/06 08:21:14;;;;;;;14.55;6.60;;;;;;;-145.69;68.89;52167.13;5031533;28;20204;-80
2023/10/06 08:23:47;;;;;;;18.27;5.88;;;;;;;-145.69;69.28;52188.91;5031205;28;20192;-79
2023/10/06 08:26:16;;;;;;;12.75;5.15;;;;;;;-145.69;69.63;52179.03;5031539;28;20200;-80
2023/10/06 08:28:42;;;;;;;18.60;5.32;;;;;;;-145.69;70.19;52192.88;5031320;28;20670;-79
2023/10/06 08:31:14;;;;;;;18.67;6.40;;;;;;;-145.69;70.24;52167.13;5030263;28;20694;-79
2023/10/06 08:33:45;;;;;;;15.45;5.45;;;;;;;-145.69;69.80;52157.25;5031306;28;20223;-79
2023/10/06 08:36:11;;;;;;;12.02;4.65;;;;;;;-145.69;69.17;52159.22;5030819;28;20315;-79
2023/10/06 08:38:38;;;;;;;13.68;5.10;;;;;;;-145.69;69.08;52147.34;5030928;28;20204;-79
2023/10/06 08:41:07;;;;;;;10.27;4.45;;;;;;;-145.69;68.99;52159.22;5030640;28;20643;-79
2023/10/06 08:43:40;;;;;;;14.48;4.70;;;;;;;-145.69;67.88;52159.22;5030766;28;20196;-79
2023/10/06 08:46:07;;;;;;;11.60;4.85;;;;;;;-145.69;65.84;52167.13;5027875;28;20192;-79
2023/10/06 08:48:35;;;;;;;12.23;4.72;;;;;;;-145.69;65.71;52161.19;5029042;28;20659;-79
2023/10/06 08:51:07;;;;;;;14.13;4.20;;;;;;;-145.69;64.40;52157.25;5030387;28;20237;-79
2023/10/06 08:53:37;;;;;;;11.13;4.10;;;;;;;-145.69;63.22;52159.22;5030876;28;20239;-79
2023/10/06 08:56:03;;;;;;;8.77;3.25;;;;;;;-145.69;64.33;52175.06;5031056;28;20227;-79
2023/10/06 08:58:30;;;;;;;10.48;3.85;;;;;;;-145.69;63.21;52177.03;5030641;28;20206;-79
2023/10/06 09:00:59;;;;;;;7.60;3.55;;;;;;;-145.69;63.04;52127.53;5030197;28;20206;-80
2023/10/06 09:03:27;;;;;;;7.90;4.00;;;;;;;-145.69;62.80;52147.34;5030641;28;20207;-80
2023/10/06 09:05:54;;;;;;;10.70;3.75;;;;;;;-145.69;63.45;52125.56;5029940;28;20204;-78
2023/10/06 09:08:21;;;;;;;17.08;3.85;;;;;;;-145.69;63.05;52161.19;5030604;28;20547;-80
2023/10/06 09:10:50;;;;;;;9.63;3.85;;;;;;;-145.69;62.55;52137.44;5030180;28;20247;-80
2023/10/06 09:13:20;;;;;;;9.82;3.70;;;;;;;-145.69;62.64;52159.22;5030573;28;20196;-80
2023/10/06 09:15:56;;;;;;;12.50;4.07;;;;;;;-145.69;62.51;52123.56;5030053;28;20224;-80
2023/10/06 09:18:27;;;;;;;10.63;4.75;;;;;;;-145.69;61.16;52123.56;5029021;28;20499;-80
2023/10/06 09:20:56;;;;;;;9.32;4.15;;;;;;;-145.69;59.16;52147.34;5030857;28;20231;-81
2023/10/06 09:23:33;;;;;;;14.20;4.93;;;;;;;-145.69;55.39;52123.56;5030834;28;20371;-80
2023/10/06 09:26:00;;;;;;;10.70;3.72;;;;;;;-145.69;55.68;52149.31;5030967;28;20203;-82
2023/10/06 09:28:27;;;;;;;16.95;3.30;;;;;;;-145.69;55.05;52133.47;5030948;28;20200;-83
2023/10/06 09:31:00;;;;;;;7.22;2.83;;;;;;;-145.69;54.18;52117.63;5031117;28;20288;-80
2023/10/06 09:33:41;;;;;;;7.32;3.13;;;;;;;-145.69;52.16;52151.28;5030717;28;20204;-80
2023/10/06 09:36:11;;;;;;;7.85;2.88;;;;;;;-145.69;54.04;52115.66;5029980;28;20285;-80
2023/10/06 09:38:40;;;;;;;7.18;3.10;;;;;;;-145.69;53.85;52131.50;5029633;28;20566;-80
2023/10/06 09:41:09;;;;;;;10.77;2.75;;;;;;;-145.69;54.21;52076.03;5029476;28;20736;-80
2023/10/06 09:43:38;;;;;;;8.13;3.03;;;;;;;-145.69;54.31;52153.28;5030379;28;20200;-81
2023/10/06 09:46:11;;;;;;;9.65;3.10;;;;;;;-145.69;54.35;52135.47;5030238;28;20196;-81
2023/10/06 09:48:40;;;;;;;6.95;3.10;;;;;;;-145.69;54.21;52127.53;5025557;28;20200;-80
2023/10/06 09:51:08;;;;;;;8.80;2.88;;;;;;;-145.69;52.52;52103.78;5028474;28;20239;-80
2023/10/06 09:53:38;;;;;;;7.82;2.90;;;;;;;-145.69;52.44;52107.72;5029580;28;20565;-80
2023/10/06 09:56:07;;;;;;;7.05;2.65;;;;;;;-145.69;53.16;52111.69;5030664;28;20200;-81
2023/10/06 09:58:35;;;;;;;10.25;2.95;;;;;;;-145.69;51.55;52121.59;5030301;28;20200;-80
2023/10/06 10:01:03;;;;;;;5.93;2.60;;;;;;;-145.69;51.83;52123.56;5047473;27;20669;-81
2023/10/06 10:03:44;;;;;;;6.90;2.90;;;;;;;-145.69;52.11;52107.72;5122747;27;20548;-81
2023/10/06 10:06:21;;;;;;;7.25;3.00;;;;;;;-145.69;51.06;52111.69;5047695;27;20199;-81
2023/10/06 10:08:48;;;;;;;6.82;2.95;;;;;;;-145.69;48.54;52115.66;5021627;28;20219;-80
2023/10/06 10:11:28;;;;;;;8.10;3.00;;;;;;;-145.69;47.89;52066.16;5037261;27;20234;-80
2023/10/06 10:14:23;;;;;;;10.02;2.85;;;;;;;-145.69;46.49;52093.88;5029088;28;20198;-80
2023/10/06 10:17:13;;;;;;;6.15;2.67;;;;;;;-145.69;46.00;52082.00;5030212;28;20279;-80
2023/10/06 10:19:44;;;;;;;7.18;3.10;;;;;;;-145.69;45.87;52111.69;5027166;28;20204;-80
2023/10/06 10:22:13;;;;;;;5.72;2.75;;;;;;;-145.69;46.33;52060.22;5029756;28;20200;-80
2023/10/06 10:24:42;;;;;;;6.88;2.72;;;;;;;-145.69;46.47;52099.81;5029118;28;20675;-79
2023/10/06 10:27:13;;;;;;;8.82;3.10;;;;;;;-145.69;45.98;52087.94;5029904;28;20273;-80
2023/10/06 10:29:41;;;;;;;6.50;2.53;;;;;;;-145.69;46.31;52087.94;5029109;28;20207;-80
2023/10/06 10:32:13;;;;;;;9.35;2.70;;;;;;;-145.69;45.69;52129.50;5032686;28;20228;-80
2023/10/06 10:35:09;;;;;;;6.25;2.70;;;;;;;-145.69;44.63;52087.94;5033374;28;20208;-80
2023/10/06 10:37:58;;;;;;;6.47;2.67;;;;;;;-145.69;44.72;52068.13;5032848;28;20204;-79
2023/10/06 10:40:26;;;;;;;9.48;2.45;;;;;;;-145.69;45.36;52093.88;5033093;28;20558;-80
2023/10/06 10:42:57;;;;;;;8.23;2.92;;;;;;;-145.69;44.65;52119.63;5032845;28;20303;-81
2023/10/06 10:45:34;;;;;;;11.63;3.05;;;;;;;-145.69;43.25;52091.88;5032991;28;20196;-80
2023/10/06 10:48:04;;;;;;;7.22;2.63;;;;;;;-145.69;43.96;52078.03;5033108;28;20207;-80
2023/10/06 10:51:10;;;;;;;8.95;3.45;;;;;;;-145.69;43.94;52052.28;5032099;28;20486;-80
2023/10/06 10:53:41;;;;;;;7.57;2.95;;;;;;;-145.69;43.25;52087.94;5073517;28;20753;-80
2023/10/06 10:56:17;;;;;;;8.07;2.80;;;;;;;-145.69;43.35;52060.22;5074232;28;20205;-81
2023/10/06 10:59:02;;;;;;;6.72;2.80;;;;;;;-145.69;42.36;52080.00;5050110;28;20208;-80
2023/10/06 11:01:37;;;;;;;6.05;2.58;;;;;;;-145.69;42.38;52052.28;5033047;28;20207;-80
2023/10/06 11:04:31;;;;;;;6.00;2.38;;;;;;;-145.69;42.10;52066.16;5033021;28;20204;-81
2023/10/06 11:07:01;;;;;;;6.63;2.95;;;;;;;-145.69;42.99;52076.03;5014470;28;20200;-81
2023/10/06 11:09:36;;;;;;;6.88;3.10;;;;;;;-145.69;42.26;52072.09;5032601;28;20235;-81
2023/10/06 11:12:09;;;;;;;9.40;3.20;;;;;;;-145.69;42.90;52052.28;5032209;28;20788;-80
2023/10/06 11:14:40;;;;;;;7.65;2.90;;;;;;;-145.69;42.33;52072.09;5032810;28;20200;-81
2023/10/06 11:17:07;;;;;;;10.48;2.90;;;;;;;-145.69;42.33;52099.81;5032102;28;20208;-80
2023/10/06 11:19:37;;;;;;;6.43;2.42;;;;;;;-145.69;42.11;52078.03;5032923;28;20204;-81
2023/10/06 11:22:11;;;;;;;5.97;2.60;;;;;;;-145.69;40.35;52064.16;5032501;28;20647;-82
2023/10/06 11:24:40;;;;;;;7.40;2.80;;;;;;;-145.69;41.25;52048.31;5032205;28;20207;-81
2023/10/06 11:27:16;;;;;;;9.00;2.88;;;;;;;-145.69;40.56;52032.47;5031965;28;20201;-81